createdAt,value
2018-02-05T00:00:28.567Z,99.99
2018-02-05T00:01:28.578Z,99.99
2018-02-05T00:02:28.594Z,99.99
2018-02-05T00:03:28.603Z,99.99
2018-02-05T00:04:28.619Z,99.99
2018-02-05T00:05:28.627Z,99.99
2018-02-05T00:06:28.642Z,99.99
2018-02-05T00:07:28.656Z,99.99
2018-02-05T00:08:28.665Z,99.99
2018-02-05T00:09:28.680Z,99.99
2018-02-05T00:10:28.689Z,99.99
2018-02-05T00:11:28.705Z,99.99
2018-02-05T00:12:28.720Z,99.99
2018-02-05T00:13:28.726Z,99.99
2018-02-05T00:14:28.737Z,99.99
2018-02-05T00:15:28.748Z,99.99
2018-02-05T00:16:28.769Z,99.99
2018-02-05T00:17:28.778Z,99.99
2018-02-05T00:18:28.787Z,99.99
2018-02-05T00:19:28.797Z,99.99
2018-02-05T00:20:28.807Z,99.99
2018-02-05T00:21:28.821Z,99.99
2018-02-05T00:22:28.831Z,99.99
2018-02-05T00:23:28.847Z,99.99
2018-02-05T00:24:28.856Z,99.99
2018-02-05T00:25:28.864Z,99.99
2018-02-05T00:26:28.879Z,99.99
2018-02-05T00:27:28.895Z,99.99
2018-02-05T00:28:28.907Z,99.99
2018-02-05T00:29:28.923Z,99.99
2018-02-05T00:30:28.930Z,99.99
2018-02-05T00:31:28.940Z,99.99
2018-02-05T00:32:28.951Z,99.99
2018-02-05T00:33:28.974Z,99.99
2018-02-05T00:34:28.977Z,99.99
2018-02-05T00:35:28.990Z,99.99
2018-02-05T00:36:29.003Z,99.99
2018-02-05T00:37:29.014Z,99.99
2018-02-05T00:38:29.030Z,99.99
2018-02-05T00:39:29.039Z,99.99
2018-02-05T00:40:29.050Z,99.99
2018-02-05T00:41:29.072Z,99.99
2018-02-05T00:42:29.077Z,99.99
2018-02-05T00:43:29.087Z,99.99
2018-02-05T00:44:29.102Z,99.99
2018-02-05T00:45:29.112Z,99.99
2018-02-05T00:46:29.121Z,99.99
2018-02-05T00:47:29.135Z,99.99
2018-02-05T00:48:29.151Z,99.99
2018-02-05T00:49:29.160Z,99.99
2018-02-05T00:50:29.172Z,99.99
2018-02-05T00:51:29.183Z,99.99
2018-02-05T00:52:29.200Z,99.99
2018-02-05T00:53:29.210Z,99.99
2018-02-05T00:54:29.220Z,99.99
2018-02-05T00:55:29.242Z,99.99
2018-02-05T00:56:29.236Z,99.99
2018-02-05T00:57:29.261Z,99.99
2018-02-05T00:58:29.289Z,99.99
2018-02-05T00:59:29.281Z,99.99
2018-02-05T01:00:29.288Z,99.99
2018-02-05T01:01:29.307Z,99.99
2018-02-05T01:02:29.317Z,99.99
2018-02-05T01:03:29.335Z,99.99
2018-02-05T01:04:29.340Z,99.99
2018-02-05T01:05:29.349Z,99.99
2018-02-05T01:06:29.371Z,99.99
2018-02-05T01:07:29.378Z,99.99
2018-02-05T01:08:29.385Z,99.99
2018-02-05T01:09:29.400Z,99.99
2018-02-05T01:10:29.412Z,99.99
2018-02-05T01:11:29.430Z,99.99
2018-02-05T01:12:29.440Z,99.99
2018-02-05T01:13:29.443Z,99.99
2018-02-05T01:14:29.455Z,99.99
2018-02-05T01:15:31.453Z,99.99
2018-02-05T01:16:29.493Z,99.99
2018-02-05T01:17:29.497Z,99.99
2018-02-05T01:18:29.507Z,99.99
2018-02-05T01:19:29.521Z,99.99
2018-02-05T01:20:29.533Z,99.99
2018-02-05T01:21:29.539Z,99.99
2018-02-05T01:22:29.553Z,99.99
2018-02-05T01:23:29.574Z,99.99
2018-02-05T01:24:29.572Z,99.99
2018-02-05T01:25:29.596Z,99.99
2018-02-05T01:26:29.605Z,99.99
2018-02-05T01:27:29.611Z,99.99
2018-02-05T01:28:29.679Z,99.99
2018-02-05T01:29:29.642Z,99.99
2018-02-05T01:30:29.652Z,99.99
2018-02-05T01:31:29.663Z,99.99
2018-02-05T01:32:29.677Z,99.99
2018-02-05T01:33:29.688Z,99.99
2018-02-05T01:34:29.700Z,99.99
2018-02-05T01:35:29.714Z,99.99
2018-02-05T01:36:29.721Z,99.99
2018-02-05T01:37:29.738Z,99.99
2018-02-05T01:38:29.746Z,99.99
2018-02-05T01:39:29.776Z,99.99
2018-02-05T01:40:29.798Z,99.99
2018-02-05T01:41:29.786Z,99.99
2018-02-05T01:42:29.799Z,99.99
2018-02-05T01:43:29.811Z,99.99
2018-02-05T01:44:29.822Z,99.99
2018-02-05T01:45:29.833Z,99.99
2018-02-05T01:46:29.850Z,99.99
2018-02-05T01:47:29.858Z,99.99
2018-02-05T01:48:29.871Z,99.99
2018-02-05T01:49:29.882Z,99.99
2018-02-05T01:50:29.897Z,99.99
2018-02-05T01:51:29.906Z,99.99
2018-02-05T01:52:29.923Z,99.99
2018-02-05T01:53:29.931Z,99.99
2018-02-05T01:54:29.948Z,99.99
2018-02-05T01:55:29.975Z,99.99
2018-02-05T01:56:29.968Z,99.99
2018-02-05T01:57:29.978Z,99.99
2018-02-05T01:58:29.995Z,99.99
2018-02-05T01:59:30.004Z,99.99
2018-02-05T02:00:30.021Z,99.99
2018-02-05T02:01:30.028Z,99.99
2018-02-05T02:02:30.042Z,99.99
2018-02-05T02:03:30.051Z,99.99
2018-02-05T02:04:30.065Z,99.99
2018-02-05T02:05:30.077Z,99.99
2018-02-05T02:06:30.086Z,99.99
2018-02-05T02:07:30.103Z,99.99
2018-02-05T02:08:30.111Z,99.99
2018-02-05T02:09:30.124Z,99.99
2018-02-05T02:10:30.141Z,99.99
2018-02-05T02:11:30.152Z,99.99
2018-02-05T02:12:30.161Z,99.99
2018-02-05T02:13:30.173Z,99.99
2018-02-05T02:14:30.181Z,99.99
2018-02-05T02:15:30.202Z,99.99
2018-02-05T02:16:30.213Z,99.99
2018-02-05T02:17:30.232Z,99.99
2018-02-05T02:18:30.237Z,99.99
2018-02-05T02:19:30.249Z,99.99
2018-02-05T02:20:30.256Z,99.99
2018-02-05T02:21:30.268Z,99.99
2018-02-05T02:22:30.280Z,99.99
2018-02-05T02:23:30.291Z,99.99
2018-02-05T02:24:30.299Z,99.99
2018-02-05T02:25:30.317Z,99.99
2018-02-05T02:26:30.322Z,99.99
2018-02-05T02:27:30.340Z,99.99
2018-02-05T02:28:30.349Z,99.99
2018-02-05T02:29:30.359Z,99.99
2018-02-05T02:30:30.377Z,99.99
2018-02-05T02:31:30.393Z,99.99
2018-02-05T02:32:30.400Z,99.99
2018-02-05T02:33:30.413Z,99.99
2018-02-05T02:34:30.429Z,99.99
2018-02-05T02:35:30.437Z,99.99
2018-02-05T02:36:30.450Z,99.99
2018-02-05T02:37:30.463Z,99.99
2018-02-05T02:38:30.476Z,99.99
2018-02-05T02:39:30.485Z,99.99
2018-02-05T02:40:30.499Z,99.99
2018-02-05T02:41:30.507Z,99.99
2018-02-05T02:42:30.523Z,99.99
2018-02-05T02:43:30.533Z,99.99
2018-02-05T02:44:30.547Z,99.99
2018-02-05T02:45:30.555Z,99.99
2018-02-05T02:46:30.571Z,99.99
2018-02-05T02:47:30.577Z,99.99
2018-02-05T02:48:30.596Z,99.99
2018-02-05T02:49:30.607Z,99.99
2018-02-05T02:50:30.619Z,99.99
2018-02-05T02:51:30.634Z,99.99
2018-02-05T02:52:30.651Z,99.99
2018-02-05T02:53:30.660Z,99.99
2018-02-05T02:54:30.665Z,99.99
2018-02-05T02:55:30.694Z,99.99
2018-02-05T02:56:30.693Z,99.99
2018-02-05T02:57:30.701Z,99.99
2018-02-05T02:58:30.714Z,99.99
2018-02-05T02:59:30.724Z,99.99
2018-02-05T03:00:30.732Z,99.99
2018-02-05T03:01:30.755Z,99.99
2018-02-05T03:02:30.762Z,99.99
2018-02-05T03:03:30.773Z,99.99
2018-02-05T03:04:30.782Z,99.99
2018-02-05T03:05:30.797Z,99.99
2018-02-05T03:06:30.810Z,99.99
2018-02-05T03:07:30.824Z,99.99
2018-02-05T03:08:30.832Z,99.99
2018-02-05T03:09:30.842Z,99.99
2018-02-05T03:10:30.859Z,99.99
2018-02-05T03:11:30.867Z,99.99
2018-02-05T03:12:30.875Z,99.99
2018-02-05T03:13:30.894Z,99.99
2018-02-05T03:14:30.909Z,99.99
2018-02-05T03:15:30.917Z,99.99
2018-02-05T03:16:30.935Z,99.99
2018-02-05T03:17:30.942Z,99.99
2018-02-05T03:18:30.961Z,99.99
2018-02-05T03:19:30.965Z,99.99
2018-02-05T03:20:30.975Z,99.99
2018-02-05T03:21:30.988Z,99.99
2018-02-05T03:22:31.001Z,99.99
2018-02-05T03:23:31.013Z,99.99
2018-02-05T03:24:31.026Z,99.99
2018-02-05T03:25:31.034Z,99.99
2018-02-05T03:26:31.051Z,99.99
2018-02-05T03:27:31.062Z,99.99
2018-02-05T03:28:31.071Z,99.99
2018-02-05T03:29:31.090Z,99.99
2018-02-05T03:30:31.098Z,99.99
2018-02-05T03:31:31.107Z,99.99
2018-02-05T03:32:31.123Z,99.99
2018-02-05T03:33:31.136Z,99.99
2018-02-05T03:34:31.145Z,99.99
2018-02-05T03:35:31.159Z,99.99
2018-02-05T03:36:31.175Z,99.99
2018-02-05T03:37:31.182Z,99.99
2018-02-05T03:38:31.189Z,99.99
2018-02-05T03:39:31.208Z,99.99
2018-02-05T03:40:31.227Z,99.99
2018-02-05T03:41:31.233Z,99.99
2018-02-05T03:42:31.239Z,99.99
2018-02-05T03:43:31.258Z,99.99
2018-02-05T03:44:31.266Z,99.99
2018-02-05T03:45:31.273Z,99.99
2018-02-05T03:46:31.290Z,99.99
2018-02-05T03:47:31.303Z,99.99
2018-02-05T03:48:31.316Z,99.99
2018-02-05T03:49:31.326Z,99.99
2018-02-05T03:50:31.338Z,99.99
2018-02-05T03:51:31.352Z,99.99
2018-02-05T03:52:31.364Z,99.99
2018-02-05T03:53:31.373Z,99.99
2018-02-05T03:54:31.388Z,99.99
2018-02-05T03:55:31.397Z,99.99
2018-02-05T03:56:31.412Z,99.99
2018-02-05T03:57:31.423Z,99.99
2018-02-05T03:58:31.430Z,99.99
2018-02-05T03:59:31.444Z,99.99
2018-02-05T04:00:31.458Z,99.99
2018-02-05T04:01:31.470Z,99.99
2018-02-05T04:02:31.482Z,99.99
2018-02-05T04:03:31.492Z,99.99
2018-02-05T04:04:31.505Z,99.99
2018-02-05T04:05:31.523Z,99.99
2018-02-05T04:06:31.530Z,99.99
2018-02-05T04:07:31.544Z,99.99
2018-02-05T04:08:31.555Z,99.99
2018-02-05T04:09:31.568Z,99.99
2018-02-05T04:10:31.584Z,99.99
2018-02-05T04:11:31.588Z,99.99
2018-02-05T04:12:31.603Z,99.99
2018-02-05T04:13:31.616Z,99.99
2018-02-05T04:14:31.627Z,99.99
2018-02-05T04:15:31.641Z,99.99
2018-02-05T04:16:31.655Z,99.99
2018-02-05T04:17:31.659Z,99.99
2018-02-05T04:18:31.671Z,99.99
2018-02-05T04:19:31.690Z,99.99
2018-02-05T04:20:31.699Z,99.99
2018-02-05T04:21:31.708Z,99.99
2018-02-05T04:22:31.722Z,99.99
2018-02-05T04:23:31.732Z,99.99
2018-02-05T04:24:31.747Z,99.99
2018-02-05T04:25:31.757Z,99.99
2018-02-05T04:26:31.769Z,99.99
2018-02-05T04:27:31.783Z,99.99
2018-02-05T04:28:31.788Z,99.99
2018-02-05T04:29:31.800Z,99.99
2018-02-05T04:30:31.817Z,99.99
2018-02-05T04:31:31.830Z,99.99
2018-02-05T04:32:31.841Z,99.99
2018-02-05T04:33:31.854Z,99.99
2018-02-05T04:34:31.865Z,99.99
2018-02-05T04:35:31.881Z,99.99
2018-02-05T04:36:31.887Z,99.99
2018-02-05T04:37:31.900Z,99.99
2018-02-05T04:38:31.908Z,99.99
2018-02-05T04:39:31.928Z,99.99
2018-02-05T04:40:31.936Z,99.99
2018-02-05T04:41:31.951Z,99.99
2018-02-05T04:42:31.961Z,99.99
2018-02-05T04:43:31.972Z,99.99
2018-02-05T04:44:31.980Z,99.99
2018-02-05T04:45:32.004Z,99.99
2018-02-05T04:46:32.018Z,99.99
2018-02-05T04:47:32.017Z,99.99
2018-02-05T04:48:32.030Z,99.99
2018-02-05T04:49:32.056Z,99.99
2018-02-05T04:50:32.056Z,99.99
2018-02-05T04:51:32.064Z,99.99
2018-02-05T04:52:32.077Z,99.99
2018-02-05T04:53:32.088Z,99.99
2018-02-05T04:54:32.099Z,99.99
2018-02-05T04:55:32.114Z,99.99
2018-02-05T04:56:32.124Z,99.99
2018-02-05T04:57:32.136Z,99.99
2018-02-05T04:58:32.148Z,99.99
2018-02-05T04:59:32.163Z,99.99
2018-02-05T05:00:32.170Z,99.99
2018-02-05T05:01:32.184Z,99.99
2018-02-05T05:02:32.202Z,99.99
2018-02-05T05:03:32.200Z,99.99
2018-02-05T05:04:32.222Z,99.99
2018-02-05T05:05:32.230Z,99.99
2018-02-05T05:06:32.241Z,99.99
2018-02-05T05:07:32.256Z,99.99
2018-02-05T05:08:32.268Z,99.99
2018-02-05T05:09:32.277Z,99.99
2018-02-05T05:10:32.292Z,99.99
2018-02-05T05:11:32.303Z,99.99
2018-02-05T05:12:32.312Z,99.99
2018-02-05T05:13:32.324Z,99.99
2018-02-05T05:14:32.336Z,99.99
2018-02-05T05:15:32.353Z,99.99
2018-02-05T05:16:32.359Z,99.99
2018-02-05T05:17:32.368Z,99.99
2018-02-05T05:18:32.386Z,99.99
2018-02-05T05:19:32.397Z,99.99
2018-02-05T05:20:32.411Z,99.99
2018-02-05T05:21:32.421Z,99.99
2018-02-05T05:22:32.428Z,99.99
2018-02-05T05:23:32.443Z,99.99
2018-02-05T05:24:32.466Z,99.99
2018-02-05T05:25:32.470Z,99.99
2018-02-05T05:26:32.478Z,99.99
2018-02-05T05:27:32.492Z,99.99
2018-02-05T05:28:32.503Z,99.99
2018-02-05T05:29:32.521Z,99.99
2018-02-05T05:30:32.525Z,99.99
2018-02-05T05:31:32.538Z,99.99
2018-02-05T05:32:32.542Z,99.99
2018-02-05T05:33:32.563Z,99.99
2018-02-05T05:34:32.574Z,99.99
2018-02-05T05:35:32.582Z,99.99
2018-02-05T05:36:32.592Z,99.99
2018-02-05T05:37:32.608Z,99.99
2018-02-05T05:38:32.618Z,99.99
2018-02-05T05:39:32.626Z,99.99
2018-02-05T05:40:32.640Z,99.99
2018-02-05T05:41:32.654Z,99.99
2018-02-05T05:42:32.665Z,99.99
2018-02-05T05:43:32.678Z,99.99
2018-02-05T05:44:32.736Z,99.99
2018-02-05T05:45:32.696Z,99.99
2018-02-05T05:46:32.715Z,99.99
2018-02-05T05:47:32.727Z,99.99
2018-02-05T05:48:32.737Z,99.99
2018-02-05T05:49:32.748Z,99.99
2018-02-05T05:50:32.765Z,99.99
2018-02-05T05:51:32.773Z,99.99
2018-02-05T05:52:32.786Z,99.99
2018-02-05T05:53:32.798Z,99.99
2018-02-05T05:54:32.807Z,99.99
2018-02-05T05:55:32.826Z,99.99
2018-02-05T05:56:32.833Z,99.99
2018-02-05T05:57:32.842Z,99.99
2018-02-05T05:58:32.854Z,99.99
2018-02-05T05:59:32.866Z,99.99
2018-02-05T06:00:32.883Z,99.99
2018-02-05T06:01:32.892Z,99.99
2018-02-05T06:02:32.901Z,99.99
2018-02-05T06:03:32.910Z,99.99
2018-02-05T06:04:32.927Z,99.99
2018-02-05T06:05:32.935Z,99.99
2018-02-05T06:06:32.945Z,99.99
2018-02-05T06:07:32.960Z,99.99
2018-02-05T06:08:32.972Z,99.99
2018-02-05T06:09:32.980Z,99.99
2018-02-05T06:10:32.995Z,99.99
2018-02-05T06:11:33.007Z,99.99
2018-02-05T06:12:33.018Z,99.99
2018-02-05T06:13:33.029Z,99.99
2018-02-05T06:14:33.047Z,99.99
2018-02-05T06:15:33.051Z,99.99
2018-02-05T06:16:33.062Z,99.99
2018-02-05T06:17:33.074Z,99.99
2018-02-05T06:18:33.087Z,99.99
2018-02-05T06:19:33.097Z,99.99
2018-02-05T06:20:33.108Z,99.99
2018-02-05T06:21:33.119Z,99.99
2018-02-05T06:22:33.132Z,99.99
2018-02-05T06:23:33.143Z,99.99
2018-02-05T06:24:33.149Z,99.99
2018-02-05T06:25:33.178Z,99.99
2018-02-05T06:26:33.185Z,99.99
2018-02-05T06:27:33.190Z,99.99
2018-02-05T06:28:33.200Z,99.99
2018-02-05T06:29:33.212Z,99.99
2018-02-05T06:30:33.229Z,99.99
2018-02-05T06:31:33.236Z,99.99
2018-02-05T06:32:33.248Z,99.99
2018-02-05T06:33:33.261Z,99.99
2018-02-05T06:34:33.271Z,99.99
2018-02-05T06:35:33.285Z,99.99
2018-02-05T06:36:33.292Z,99.99
2018-02-05T06:37:33.311Z,99.99
2018-02-05T06:38:33.321Z,99.99
2018-02-05T06:39:33.331Z,99.99
2018-02-05T06:40:33.340Z,99.99
2018-02-05T06:41:33.352Z,99.99
2018-02-05T06:42:33.366Z,99.99
2018-02-05T06:43:33.372Z,99.99
2018-02-05T06:44:33.392Z,99.99
2018-02-05T06:45:33.397Z,99.99
2018-02-05T06:46:33.411Z,99.99
2018-02-05T06:47:33.427Z,99.99
2018-02-05T06:48:33.433Z,99.99
2018-02-05T06:49:33.452Z,99.99
2018-02-05T06:50:33.460Z,99.99
2018-02-05T06:51:33.468Z,99.99
2018-02-05T06:52:33.484Z,99.99
2018-02-05T06:53:33.493Z,99.99
2018-02-05T06:54:33.504Z,99.99
2018-02-05T06:55:33.514Z,99.99
2018-02-05T06:56:33.525Z,99.99
2018-02-05T06:57:33.533Z,99.99
2018-02-05T06:58:33.551Z,99.99
2018-02-05T06:59:33.561Z,99.99
2018-02-05T07:00:33.574Z,99.99
2018-02-05T07:01:33.581Z,99.99
2018-02-05T07:02:33.605Z,99.99
2018-02-05T07:03:33.615Z,99.99
2018-02-05T07:04:33.615Z,99.99
2018-02-05T07:05:33.668Z,99.99
2018-02-05T07:06:33.648Z,99.99
2018-02-05T07:07:33.669Z,99.99
2018-02-05T07:08:33.703Z,99.99
2018-02-05T07:09:33.684Z,99.99
2018-02-05T07:10:33.767Z,99.99
2018-02-05T07:11:33.703Z,99.99
2018-02-05T07:12:33.809Z,99.99
2018-02-05T07:13:33.724Z,99.99
2018-02-05T07:14:33.737Z,99.99
2018-02-05T07:15:33.752Z,99.99
2018-02-05T07:16:33.792Z,99.99
2018-02-05T07:17:33.768Z,99.99
2018-02-05T07:18:33.780Z,99.99
2018-02-05T07:19:33.791Z,99.99
2018-02-05T07:20:33.803Z,99.99
2018-02-05T07:21:33.817Z,99.99
2018-02-05T07:22:33.826Z,99.99
2018-02-05T07:23:33.835Z,99.99
2018-02-05T07:24:33.843Z,99.99
2018-02-05T07:25:33.860Z,99.99
2018-02-05T07:26:33.870Z,99.99
2018-02-05T07:27:33.913Z,99.99
2018-02-05T07:28:33.895Z,99.99
2018-02-05T07:29:33.910Z,99.99
2018-02-05T07:30:33.923Z,99.99
2018-02-05T07:31:33.934Z,99.99
2018-02-05T07:32:33.998Z,99.99
2018-02-05T07:33:34.020Z,99.99
2018-02-05T07:34:34.042Z,99.99
2018-02-05T07:35:34.033Z,99.99
2018-02-05T07:36:34.070Z,99.99
2018-02-05T07:37:34.057Z,99.99
2018-02-05T07:38:34.060Z,99.99
2018-02-05T07:39:34.055Z,99.99
2018-02-05T07:40:34.106Z,99.99
2018-02-05T07:41:34.076Z,99.99
2018-02-05T07:42:34.126Z,99.99
2018-02-05T07:43:34.067Z,99.99
2018-02-05T07:44:34.080Z,99.99
2018-02-05T07:45:34.093Z,99.99
2018-02-05T07:46:34.185Z,99.99
2018-02-05T07:47:34.157Z,99.99
2018-02-05T07:48:34.167Z,99.61
2018-02-05T07:49:34.162Z,99.71
2018-02-05T07:50:34.204Z,99.71
2018-02-05T07:51:34.165Z,99.65
2018-02-05T07:52:34.176Z,99.89
2018-02-05T07:53:34.189Z,99.61
2018-02-05T07:54:34.222Z,99.33
2018-02-05T07:55:34.206Z,98.95
2018-02-05T07:56:34.222Z,99.42
2018-02-05T07:57:34.235Z,99.99
2018-02-05T07:58:34.248Z,99.23
2018-02-05T07:59:34.255Z,99.61
2018-02-05T08:00:34.276Z,99.52
2018-02-05T08:01:34.282Z,99.04
2018-02-05T08:02:34.296Z,99.04
2018-02-05T08:03:34.306Z,98.85
2018-02-05T08:04:34.316Z,98.85
2018-02-05T08:05:34.324Z,98.76
2018-02-05T08:06:34.328Z,98.85
2018-02-05T08:07:34.345Z,98.95
2018-02-05T08:08:34.362Z,99.04
2018-02-05T08:09:34.368Z,98.85
2018-02-05T08:10:34.376Z,99.23
2018-02-05T08:11:34.393Z,98.76
2018-02-05T08:12:34.404Z,98.47
2018-02-05T08:13:34.418Z,98.57
2018-02-05T08:14:34.425Z,98.38
2018-02-05T08:15:34.438Z,98.38
2018-02-05T08:16:34.451Z,98.47
2018-02-05T08:17:34.458Z,98.38
2018-02-05T08:18:34.484Z,97.91
2018-02-05T08:19:34.484Z,97.34
2018-02-05T08:20:34.495Z,97.81
2018-02-05T08:21:34.512Z,97.91
2018-02-05T08:22:34.530Z,97.91
2018-02-05T08:23:34.531Z,97.53
2018-02-05T08:24:34.552Z,97.06
2018-02-05T08:25:34.557Z,97.34
2018-02-05T08:26:34.564Z,96.59
2018-02-05T08:27:34.609Z,96.30
2018-02-05T08:28:34.592Z,96.21
2018-02-05T08:29:34.601Z,96.30
2018-02-05T08:30:34.615Z,95.83
2018-02-05T08:31:34.618Z,95.83
2018-02-05T08:32:34.653Z,95.45
2018-02-05T08:33:34.658Z,95.26
2018-02-05T08:34:34.672Z,95.45
2018-02-05T08:35:34.670Z,95.07
2018-02-05T08:36:34.684Z,95.07
2018-02-05T08:37:34.695Z,95.36
2018-02-05T08:38:34.699Z,94.70
2018-02-05T08:39:34.722Z,94.41
2018-02-05T08:40:34.820Z,94.32
2018-02-05T08:41:34.741Z,94.32
2018-02-05T08:42:34.760Z,94.70
2018-02-05T08:43:34.765Z,94.22
2018-02-05T08:44:34.780Z,93.47
2018-02-05T08:45:34.812Z,92.66
2018-02-05T08:46:34.833Z,93.23
2018-02-05T08:47:34.813Z,92.85
2018-02-05T08:48:34.821Z,92.10
2018-02-05T08:49:34.840Z,91.24
2018-02-05T08:50:34.860Z,92.10
2018-02-05T08:51:34.906Z,91.62
2018-02-05T08:52:34.873Z,91.53
2018-02-05T08:53:34.881Z,92.29
2018-02-05T08:54:34.900Z,91.53
2018-02-05T08:55:34.901Z,91.62
2018-02-05T08:56:34.919Z,91.43
2018-02-05T08:57:34.932Z,91.91
2018-02-05T08:58:34.942Z,91.43
2018-02-05T08:59:34.955Z,91.43
2018-02-05T09:00:34.967Z,91.24
2018-02-05T09:01:34.981Z,91.53
2018-02-05T09:02:35.013Z,91.24
2018-02-05T09:03:35.001Z,91.62
2018-02-05T09:04:35.017Z,91.62
2018-02-05T09:05:35.040Z,90.86
2018-02-05T09:06:35.046Z,90.77
2018-02-05T09:07:35.061Z,89.83
2018-02-05T09:08:35.066Z,90.20
2018-02-05T09:09:35.070Z,90.11
2018-02-05T09:10:35.089Z,89.92
2018-02-05T09:11:35.108Z,90.49
2018-02-05T09:12:35.118Z,90.20
2018-02-05T09:13:35.128Z,89.83
2018-02-05T09:14:35.134Z,89.17
2018-02-05T09:15:35.155Z,88.88
2018-02-05T09:16:35.181Z,89.17
2018-02-05T09:17:35.226Z,88.22
2018-02-05T09:18:35.229Z,88.31
2018-02-05T09:19:35.208Z,88.83
2018-02-05T09:20:35.215Z,88.69
2018-02-05T09:21:35.236Z,88.93
2018-02-05T09:22:35.238Z,88.22
2018-02-05T09:23:35.260Z,88.17
2018-02-05T09:24:35.278Z,88.36
2018-02-05T09:25:35.276Z,87.70
2018-02-05T09:26:35.297Z,87.04
2018-02-05T09:27:35.293Z,88.26
2018-02-05T09:28:35.315Z,87.51
2018-02-05T09:29:35.321Z,87.60
2018-02-05T09:30:35.343Z,87.70
2018-02-05T09:31:35.381Z,88.17
2018-02-05T09:32:35.362Z,87.60
2018-02-05T09:33:35.391Z,88.07
2018-02-05T09:34:35.425Z,87.79
2018-02-05T09:35:35.406Z,88.17
2018-02-05T09:36:35.415Z,87.88
2018-02-05T09:37:35.434Z,87.51
2018-02-05T09:38:35.439Z,87.70
2018-02-05T09:39:35.469Z,87.51
2018-02-05T09:40:35.802Z,87.60
2018-02-05T09:41:35.492Z,87.98
2018-02-05T09:42:35.491Z,88.07
2018-02-05T09:43:35.507Z,87.41
2018-02-05T09:44:35.512Z,87.41
2018-02-05T09:45:35.527Z,87.13
2018-02-05T09:46:35.538Z,87.04
2018-02-05T09:47:35.700Z,87.79
2018-02-05T09:48:35.560Z,87.23
2018-02-05T09:49:35.569Z,87.41
2018-02-05T09:50:35.596Z,87.32
2018-02-05T09:51:35.599Z,86.75
2018-02-05T09:52:35.612Z,86.37
2018-02-05T09:53:35.624Z,86.18
2018-02-05T09:54:35.684Z,86.28
2018-02-05T09:55:35.677Z,87.98
2018-02-05T09:56:35.668Z,87.04
2018-02-05T09:57:35.679Z,86.09
2018-02-05T09:58:35.696Z,87.04
2018-02-05T09:59:35.701Z,87.51
2018-02-05T10:00:35.718Z,87.23
2018-02-05T10:01:35.723Z,86.47
2018-02-05T10:02:35.748Z,85.90
2018-02-05T10:03:35.756Z,85.99
2018-02-05T10:04:35.769Z,85.71
2018-02-05T10:05:35.772Z,85.90
2018-02-05T10:06:35.822Z,85.52
2018-02-05T10:07:35.823Z,85.80
2018-02-05T10:08:35.821Z,85.90
2018-02-05T10:09:35.833Z,85.71
2018-02-05T10:10:35.847Z,85.90
2018-02-05T10:11:35.915Z,85.14
2018-02-05T10:12:35.904Z,85.14
2018-02-05T10:13:35.887Z,85.05
2018-02-05T10:14:35.892Z,85.14
2018-02-05T10:15:35.901Z,85.24
2018-02-05T10:16:35.976Z,85.14
2018-02-05T10:17:35.929Z,85.71
2018-02-05T10:18:35.948Z,85.90
2018-02-05T10:19:35.957Z,85.61
2018-02-05T10:20:35.969Z,85.05
2018-02-05T10:21:35.978Z,84.58
2018-02-05T10:22:35.993Z,84.95
2018-02-05T10:23:36.008Z,85.05
2018-02-05T10:24:36.023Z,85.33
2018-02-05T10:25:36.041Z,84.95
2018-02-05T10:26:36.051Z,85.00
2018-02-05T10:27:36.074Z,84.77
2018-02-05T10:28:36.078Z,84.58
2018-02-05T10:29:36.395Z,84.23
2018-02-05T10:30:36.103Z,83.86
2018-02-05T10:31:36.117Z,85.38
2018-02-05T10:32:36.121Z,85.09
2018-02-05T10:33:36.135Z,85.38
2018-02-05T10:34:36.154Z,84.90
2018-02-05T10:35:36.157Z,84.90
2018-02-05T10:36:36.172Z,84.61
2018-02-05T10:37:36.197Z,84.52
2018-02-05T10:38:36.201Z,84.81
2018-02-05T10:39:36.212Z,84.33
2018-02-05T10:40:36.227Z,84.14
2018-02-05T10:41:36.240Z,83.39
2018-02-05T10:42:36.253Z,83.67
2018-02-05T10:43:36.266Z,83.58
2018-02-05T10:44:36.280Z,84.71
2018-02-05T10:45:36.303Z,84.14
2018-02-05T10:46:36.306Z,83.20
2018-02-05T10:47:36.318Z,83.20
2018-02-05T10:48:36.332Z,83.10
2018-02-05T10:49:36.344Z,82.91
2018-02-05T10:50:36.360Z,82.82
2018-02-05T10:51:36.385Z,81.40
2018-02-05T10:52:36.384Z,81.77
2018-02-05T10:53:36.397Z,82.91
2018-02-05T10:54:36.453Z,81.87
2018-02-05T10:55:36.423Z,81.49
2018-02-05T10:56:36.451Z,81.21
2018-02-05T10:57:36.464Z,81.59
2018-02-05T10:58:36.463Z,81.40
2018-02-05T10:59:36.521Z,81.96
2018-02-05T11:00:36.498Z,83.48
2018-02-05T11:01:36.503Z,82.72
2018-02-05T11:02:36.535Z,82.34
2018-02-05T11:03:36.600Z,82.06
2018-02-05T11:04:36.679Z,82.15
2018-02-05T11:05:37.624Z,81.87
2018-02-05T11:06:37.287Z,81.59
2018-02-05T11:07:36.643Z,81.63
2018-02-05T11:08:36.613Z,81.92
2018-02-05T11:09:36.681Z,81.30
2018-02-05T11:10:37.602Z,81.68
2018-02-05T11:11:36.759Z,81.40
